sensor_id;sensor_type;location;lat;lon;timestamp;pressure;altitude;pressure_sealevel;temperature;humidity
60852;BME280;48553;50.766;2.900;2023-07-13T00:00:29;100825.63;;;19.58;58.49
60852;BME280;48553;50.766;2.900;2023-07-13T00:03:30;100824.41;;;19.59;58.54
60852;BME280;48553;50.766;2.900;2023-07-13T00:06:35;100825.59;;;19.55;58.53
60852;BME280;48553;50.766;2.900;2023-07-13T00:09:35;100827.19;;;19.52;58.69
60852;BME280;48553;50.766;2.900;2023-07-13T00:12:38;100818.84;;;19.52;58.59
60852;BME280;48553;50.766;2.900;2023-07-13T00:15:38;100823.63;;;19.52;58.57
60852;BME280;48553;50.766;2.900;2023-07-13T00:18:39;100820.03;;;19.48;58.68
60852;BME280;48553;50.766;2.900;2023-07-13T00:21:40;100812.13;;;19.46;58.68
60852;BME280;48553;50.766;2.900;2023-07-13T00:24:41;100816.06;;;19.41;58.97
60852;BME280;48553;50.766;2.900;2023-07-13T00:27:43;100818.84;;;19.41;58.98
60852;BME280;48553;50.766;2.900;2023-07-13T00:30:44;100824.03;;;19.39;59.25
60852;BME280;48553;50.766;2.900;2023-07-13T00:33:44;100820.41;;;19.39;59.11
60852;BME280;48553;50.766;2.900;2023-07-13T00:36:45;100816.84;;;19.38;59.10
60852;BME280;48553;50.766;2.900;2023-07-13T00:39:45;100829.56;;;19.36;59.26
60852;BME280;48553;50.766;2.900;2023-07-13T00:42:46;100817.63;;;19.32;59.08
60852;BME280;48553;50.766;2.900;2023-07-13T00:48:48;100820.44;;;19.28;59.34
60852;BME280;48553;50.766;2.900;2023-07-13T00:52:10;100816.81;;;19.20;59.72
60852;BME280;48553;50.766;2.900;2023-07-13T00:55:11;100826.34;;;19.16;60.18
60852;BME280;48553;50.766;2.900;2023-07-13T00:58:12;100828.31;;;19.15;60.34
60852;BME280;48553;50.766;2.900;2023-07-13T01:01:13;100828.72;;;19.10;60.48
60852;BME280;48553;50.766;2.900;2023-07-13T01:04:14;100818.78;;;19.13;60.45
60852;BME280;48553;50.766;2.900;2023-07-13T01:07:15;100817.19;;;19.08;60.63
60852;BME280;48553;50.766;2.900;2023-07-13T01:10:16;100824.75;;;19.08;60.70
60852;BME280;48553;50.766;2.900;2023-07-13T01:13:16;100809.66;;;19.09;60.65
60852;BME280;48553;50.766;2.900;2023-07-13T01:16:38;100819.94;;;19.05;60.90
60852;BME280;48553;50.766;2.900;2023-07-13T01:19:44;100829.88;;;19.02;60.97
60852;BME280;48553;50.766;2.900;2023-07-13T01:22:45;100825.09;;;19.03;60.89
60852;BME280;48553;50.766;2.900;2023-07-13T01:25:45;100825.88;;;18.96;61.35
60852;BME280;48553;50.766;2.900;2023-07-13T01:28:46;100825.47;;;18.94;61.41
60852;BME280;48553;50.766;2.900;2023-07-13T01:31:47;100819.53;;;18.92;61.32
60852;BME280;48553;50.766;2.900;2023-07-13T01:34:48;100830.25;;;18.97;61.24
60852;BME280;48553;50.766;2.900;2023-07-13T01:37:48;100819.91;;;18.94;61.43
60852;BME280;48553;50.766;2.900;2023-07-13T01:40:50;100815.13;;;18.91;61.49
60852;BME280;48553;50.766;2.900;2023-07-13T01:43:50;100827.84;;;18.92;61.23
60852;BME280;48553;50.766;2.900;2023-07-13T01:46:51;100830.22;;;18.90;61.40
60852;BME280;48553;50.766;2.900;2023-07-13T01:49:51;100824.28;;;18.88;61.46
60852;BME280;48553;50.766;2.900;2023-07-13T01:52:52;100830.22;;;18.83;61.64
60852;BME280;48553;50.766;2.900;2023-07-13T01:55:53;100832.97;;;18.86;61.52
60852;BME280;48553;50.766;2.900;2023-07-13T01:58:53;100839.31;;;18.83;61.51
60852;BME280;48553;50.766;2.900;2023-07-13T02:01:54;100841.31;;;18.83;61.37
60852;BME280;48553;50.766;2.900;2023-07-13T02:04:54;100844.47;;;18.81;61.41
60852;BME280;48553;50.766;2.900;2023-07-13T02:07:55;100846.06;;;18.78;61.46
60852;BME280;48553;50.766;2.900;2023-07-13T02:10:55;100846.84;;;18.79;61.24
60852;BME280;48553;50.766;2.900;2023-07-13T02:13:56;100845.22;;;18.78;61.28
60852;BME280;48553;50.766;2.900;2023-07-13T02:16:56;100846.78;;;18.72;61.44
60852;BME280;48553;50.766;2.900;2023-07-13T02:19:56;100853.13;;;18.72;61.46
60852;BME280;48553;50.766;2.900;2023-07-13T02:22:57;100849.16;;;18.73;61.37
60852;BME280;48553;50.766;2.900;2023-07-13T02:25:59;100844.78;;;18.72;61.29
60852;BME280;48553;50.766;2.900;2023-07-13T02:28:59;100844.75;;;18.69;61.36
60852;BME280;48553;50.766;2.900;2023-07-13T02:32:00;100851.09;;;18.66;61.40
60852;BME280;48553;50.766;2.900;2023-07-13T02:35:00;100843.19;;;18.68;61.40
60852;BME280;48553;50.766;2.900;2023-07-13T02:38:01;100845.94;;;18.64;61.45
60852;BME280;48553;50.766;2.900;2023-07-13T02:41:05;100845.56;;;18.62;61.60
60852;BME280;48553;50.766;2.900;2023-07-13T02:44:06;100845.53;;;18.58;61.58
60852;BME280;48553;50.766;2.900;2023-07-13T02:47:08;100854.63;;;18.59;61.51
60852;BME280;48553;50.766;2.900;2023-07-13T02:50:09;100849.47;;;18.54;61.58
60852;BME280;48553;50.766;2.900;2023-07-13T02:53:09;100855.38;;;18.52;61.67
60852;BME280;48553;50.766;2.900;2023-07-13T02:56:10;100863.34;;;18.54;61.58
60852;BME280;48553;50.766;2.900;2023-07-13T02:59:10;100860.16;;;18.52;61.56
60852;BME280;48553;50.766;2.900;2023-07-13T03:02:11;100862.50;;;18.50;61.71
60852;BME280;48553;50.766;2.900;2023-07-13T03:05:11;100861.72;;;18.49;61.64
60852;BME280;48553;50.766;2.900;2023-07-13T03:08:12;100862.50;;;18.46;61.82
60852;BME280;48553;50.766;2.900;2023-07-13T03:11:17;100863.28;;;18.47;61.77
60852;BME280;48553;50.766;2.900;2023-07-13T03:14:17;100867.66;;;18.44;62.08
60852;BME280;48553;50.766;2.900;2023-07-13T03:17:18;100863.28;;;18.47;61.85
60852;BME280;48553;50.766;2.900;2023-07-13T03:20:19;100867.22;;;18.42;62.10
60852;BME280;48553;50.766;2.900;2023-07-13T03:23:20;100866.41;;;18.42;62.27
60852;BME280;48553;50.766;2.900;2023-07-13T03:26:21;100861.28;;;18.40;62.16
60852;BME280;48553;50.766;2.900;2023-07-13T03:29:22;100871.16;;;18.38;62.54
60852;BME280;48553;50.766;2.900;2023-07-13T03:32:22;100868.41;;;18.38;62.54
60852;BME280;48553;50.766;2.900;2023-07-13T03:35:23;100862.03;;;18.33;62.54
60852;BME280;48553;50.766;2.900;2023-07-13T03:38:23;100863.59;;;18.34;62.54
60852;BME280;48553;50.766;2.900;2023-07-13T03:41:24;100863.19;;;18.32;62.73
60852;BME280;48553;50.766;2.900;2023-07-13T03:44:25;100864.38;;;18.31;62.85
60852;BME280;48553;50.766;2.900;2023-07-13T03:47:25;100872.66;;;18.28;62.98
60852;BME280;48553;50.766;2.900;2023-07-13T03:50:26;100874.28;;;18.29;62.89
60852;BME280;48553;50.766;2.900;2023-07-13T03:53:26;100871.88;;;18.27;62.94
60852;BME280;48553;50.766;2.900;2023-07-13T03:56:27;100877.44;;;18.27;62.90
60852;BME280;48553;50.766;2.900;2023-07-13T03:59:28;100882.19;;;18.27;63.00
60852;BME280;48553;50.766;2.900;2023-07-13T04:02:28;100885.38;;;18.29;62.79
60852;BME280;48553;50.766;2.900;2023-07-13T04:05:28;100890.88;;;18.22;63.20
60852;BME280;48553;50.766;2.900;2023-07-13T04:08:31;100893.25;;;18.23;63.44
60852;BME280;48553;50.766;2.900;2023-07-13T04:11:32;100898.38;;;18.21;63.48
60852;BME280;48553;50.766;2.900;2023-07-13T04:14:32;100892.81;;;18.21;63.71
60852;BME280;48553;50.766;2.900;2023-07-13T04:17:33;100901.56;;;18.23;63.71
60852;BME280;48553;50.766;2.900;2023-07-13T04:20:33;100892.81;;;18.21;63.90
60852;BME280;48553;50.766;2.900;2023-07-13T04:23:34;100899.19;;;18.22;63.95
60852;BME280;48553;50.766;2.900;2023-07-13T04:26:34;100907.53;;;18.22;63.90
60852;BME280;48553;50.766;2.900;2023-07-13T04:29:38;100901.97;;;18.22;64.38
60852;BME280;48553;50.766;2.900;2023-07-13T04:32:39;100914.28;;;18.24;64.25
60852;BME280;48553;50.766;2.900;2023-07-13T04:35:39;100903.19;;;18.24;64.22
60852;BME280;48553;50.766;2.900;2023-07-13T04:38:40;100913.06;;;18.22;64.36
60852;BME280;48553;50.766;2.900;2023-07-13T04:41:41;100919.81;;;18.24;64.41
60852;BME280;48553;50.766;2.900;2023-07-13T04:44:41;100929.72;;;18.25;64.21
60852;BME280;48553;50.766;2.900;2023-07-13T04:47:42;100937.69;;;18.27;64.32
60852;BME280;48553;50.766;2.900;2023-07-13T04:50:43;100931.34;;;18.26;64.45
60852;BME280;48553;50.766;2.900;2023-07-13T04:53:43;100931.34;;;18.26;64.61
60852;BME280;48553;50.766;2.900;2023-07-13T04:56:44;100930.91;;;18.24;64.61
60852;BME280;48553;50.766;2.900;2023-07-13T04:59:44;100928.94;;;18.25;64.85
60852;BME280;48553;50.766;2.900;2023-07-13T05:02:45;100930.53;;;18.26;64.65
60852;BME280;48553;50.766;2.900;2023-07-13T05:06:01;100938.06;;;18.25;64.93
60852;BME280;48553;50.766;2.900;2023-07-13T05:09:01;100946.00;;;18.27;65.07
60852;BME280;48553;50.766;2.900;2023-07-13T05:12:03;100939.66;;;18.26;65.34
60852;BME280;48553;50.766;2.900;2023-07-13T05:15:04;100939.25;;;18.28;65.21
60852;BME280;48553;50.766;2.900;2023-07-13T05:18:05;100949.56;;;18.27;65.47
60852;BME280;48553;50.766;2.900;2023-07-13T05:21:09;100956.31;;;18.26;65.92
60852;BME280;48553;50.766;2.900;2023-07-13T05:24:09;100949.56;;;18.27;65.71
60852;BME280;48553;50.766;2.900;2023-07-13T05:27:10;100964.63;;;18.26;66.13
60852;BME280;48553;50.766;2.900;2023-07-13T05:30:11;100955.53;;;18.29;66.07
60852;BME280;48553;50.766;2.900;2023-07-13T05:33:12;100955.94;;;18.31;66.07
60852;BME280;48553;50.766;2.900;2023-07-13T05:36:13;100956.75;;;18.32;66.03
60852;BME280;48553;50.766;2.900;2023-07-13T05:39:13;100968.25;;;18.30;66.06
60852;BME280;48553;50.766;2.900;2023-07-13T05:42:14;100955.16;;;18.31;66.41
60852;BME280;48553;50.766;2.900;2023-07-13T05:45:14;100958.34;;;18.33;66.61
60852;BME280;48553;50.766;2.900;2023-07-13T05:48:15;100967.47;;;18.33;66.56
60852;BME280;48553;50.766;2.900;2023-07-13T05:51:16;100963.91;;;18.36;66.46
60852;BME280;48553;50.766;2.900;2023-07-13T05:54:16;100967.09;;;18.35;66.55
60852;BME280;48553;50.766;2.900;2023-07-13T05:57:17;100976.56;;;18.34;66.60
60852;BME280;48553;50.766;2.900;2023-07-13T06:00:17;100976.63;;;18.38;66.87
60852;BME280;48553;50.766;2.900;2023-07-13T06:03:18;100973.44;;;18.39;66.80
60852;BME280;48553;50.766;2.900;2023-07-13T06:06:18;100978.19;;;18.39;67.09
60852;BME280;48553;50.766;2.900;2023-07-13T06:09:19;100989.72;;;18.41;67.16
60852;BME280;48553;50.766;2.900;2023-07-13T06:12:20;100984.97;;;18.41;67.08
60852;BME280;48553;50.766;2.900;2023-07-13T06:15:20;100989.75;;;18.44;67.19
60852;BME280;48553;50.766;2.900;2023-07-13T06:18:21;100987.41;;;18.46;67.11
60852;BME280;48553;50.766;2.900;2023-07-13T06:21:22;100998.09;;;18.48;67.24
60852;BME280;48553;50.766;2.900;2023-07-13T06:24:23;100998.94;;;18.52;67.19
60852;BME280;48553;50.766;2.900;2023-07-13T06:27:23;101010.41;;;18.50;67.54
60852;BME280;48553;50.766;2.900;2023-07-13T06:30:24;101009.25;;;18.51;67.56
60852;BME280;48553;50.766;2.900;2023-07-13T06:33:26;101017.94;;;18.50;67.88
60852;BME280;48553;50.766;2.900;2023-07-13T06:36:26;101015.97;;;18.50;67.94
60852;BME280;48553;50.766;2.900;2023-07-13T06:39:27;101017.16;;;18.53;67.88
60852;BME280;48553;50.766;2.900;2023-07-13T06:42:27;101021.56;;;18.57;67.88
60852;BME280;48553;50.766;2.900;2023-07-13T06:45:28;101014.06;;;18.58;67.94
60852;BME280;48553;50.766;2.900;2023-07-13T06:48:28;101024.75;;;18.60;68.11
60852;BME280;48553;50.766;2.900;2023-07-13T06:51:29;101020.84;;;18.64;67.80
60852;BME280;48553;50.766;2.900;2023-07-13T06:54:29;101025.63;;;18.67;67.83
60852;BME280;48553;50.766;2.900;2023-07-13T06:57:30;101017.31;;;18.67;68.01
60852;BME280;48553;50.766;2.900;2023-07-13T07:00:31;101026.06;;;18.73;67.69
60852;BME280;48553;50.766;2.900;2023-07-13T07:03:31;101026.84;;;18.73;68.03
60852;BME280;48553;50.766;2.900;2023-07-13T07:06:32;101034.88;;;18.78;67.56
60852;BME280;48553;50.766;2.900;2023-07-13T07:09:33;101033.69;;;18.80;67.46
60852;BME280;48553;50.766;2.900;2023-07-13T07:12:33;101032.50;;;18.81;67.72
60852;BME280;48553;50.766;2.900;2023-07-13T07:15:34;101030.16;;;18.83;67.60
60852;BME280;48553;50.766;2.900;2023-07-13T07:18:36;101029.75;;;18.84;67.51
60852;BME280;48553;50.766;2.900;2023-07-13T07:21:37;101027.84;;;18.92;67.04
60852;BME280;48553;50.766;2.900;2023-07-13T07:24:37;101037.34;;;18.91;67.51
60852;BME280;48553;50.766;2.900;2023-07-13T07:27:38;101036.16;;;18.92;67.08
60852;BME280;48553;50.766;2.900;2023-07-13T07:30:43;101044.88;;;18.94;67.15
60852;BME280;48553;50.766;2.900;2023-07-13T07:33:43;101044.50;;;18.95;67.29
60852;BME280;48553;50.766;2.900;2023-07-13T07:36:44;101035.81;;;18.97;67.72
60852;BME280;48553;50.766;2.900;2023-07-13T07:39:45;101044.56;;;18.99;67.42
60852;BME280;48553;50.766;2.900;2023-07-13T07:42:45;101048.13;;;18.99;67.15
60852;BME280;48553;50.766;2.900;2023-07-13T07:45:46;101047.34;;;19.03;67.07
60852;BME280;48553;50.766;2.900;2023-07-13T07:48:46;101051.72;;;19.07;67.15
60852;BME280;48553;50.766;2.900;2023-07-13T07:51:47;101049.78;;;19.08;66.90
60852;BME280;48553;50.766;2.900;2023-07-13T07:54:48;101057.31;;;19.11;66.41
60852;BME280;48553;50.766;2.900;2023-07-13T07:57:49;101056.53;;;19.14;66.69
60852;BME280;48553;50.766;2.900;2023-07-13T08:00:49;101053.38;;;19.15;66.92
60852;BME280;48553;50.766;2.900;2023-07-13T08:03:50;101051.44;;;19.19;66.71
60852;BME280;48553;50.766;2.900;2023-07-13T08:06:50;101041.09;;;19.20;67.26
60852;BME280;48553;50.766;2.900;2023-07-13T08:09:54;101041.53;;;19.22;67.42
60852;BME280;48553;50.766;2.900;2023-07-13T08:12:55;101050.28;;;19.28;66.73
60852;BME280;48553;50.766;2.900;2023-07-13T08:15:55;101047.13;;;19.29;67.35
60852;BME280;48553;50.766;2.900;2023-07-13T08:18:56;101049.50;;;19.34;67.27
60852;BME280;48553;50.766;2.900;2023-07-13T08:21:56;101050.34;;;19.38;66.92
60852;BME280;48553;50.766;2.900;2023-07-13T08:24:56;101051.94;;;19.43;67.47
60852;BME280;48553;50.766;2.900;2023-07-13T08:27:57;101048.00;;;19.48;67.30
60852;BME280;48553;50.766;2.900;2023-07-13T08:31:05;101055.16;;;19.52;67.34
60852;BME280;48553;50.766;2.900;2023-07-13T08:34:07;101057.59;;;19.61;67.26
60852;BME280;48553;50.766;2.900;2023-07-13T08:37:07;101050.94;;;19.69;67.16
60852;BME280;48553;50.766;2.900;2023-07-13T08:40:10;101053.31;;;19.78;66.82
60852;BME280;48553;50.766;2.900;2023-07-13T08:43:25;101057.72;;;19.86;66.46
60852;BME280;48553;50.766;2.900;2023-07-13T08:46:28;101049.06;;;20.13;66.47
60852;BME280;48553;50.766;2.900;2023-07-13T08:49:33;101038.78;;;20.45;66.27
60852;BME280;48553;50.766;2.900;2023-07-13T08:52:37;101040.00;;;20.80;64.90
60852;BME280;48553;50.766;2.900;2023-07-13T08:55:38;101050.34;;;21.01;65.24
60852;BME280;48553;50.766;2.900;2023-07-13T08:58:40;101048.72;;;21.22;64.39
60852;BME280;48553;50.766;2.900;2023-07-13T09:01:58;101043.88;;;21.47;63.81
60852;BME280;48553;50.766;2.900;2023-07-13T09:05:13;101051.34;;;21.68;62.91
60852;BME280;48553;50.766;2.900;2023-07-13T09:08:49;101057.19;;;22.03;60.89
60852;BME280;48553;50.766;2.900;2023-07-13T09:12:01;101040.78;;;22.12;60.52
60852;BME280;48553;50.766;2.900;2023-07-13T09:15:21;101043.13;;;22.28;60.43
60852;BME280;48553;50.766;2.900;2023-07-13T09:18:30;101042.16;;;22.45;60.26
60852;BME280;48553;50.766;2.900;2023-07-13T09:21:36;101038.84;;;22.65;59.50
60852;BME280;48553;50.766;2.900;2023-07-13T09:28:38;101040.19;;;22.91;57.48
60852;BME280;48553;50.766;2.900;2023-07-13T09:31:43;101040.56;;;22.97;57.39
60852;BME280;48553;50.766;2.900;2023-07-13T09:34:53;101052.28;;;22.77;57.52
60852;BME280;48553;50.766;2.900;2023-07-13T09:38:21;101055.53;;;22.72;56.93
60852;BME280;48553;50.766;2.900;2023-07-13T09:44:57;101082.69;;;22.08;58.49
60852;BME280;48553;50.766;2.900;2023-07-13T09:48:12;101083.69;;;21.62;61.12
60852;BME280;48553;50.766;2.900;2023-07-13T09:51:13;101092.09;;;21.37;62.09
60852;BME280;48553;50.766;2.900;2023-07-13T09:54:20;101083.75;;;21.23;63.21
60852;BME280;48553;50.766;2.900;2023-07-13T09:57:23;101082.56;;;21.13;63.79
60852;BME280;48553;50.766;2.900;2023-07-13T10:00:29;101087.75;;;21.00;64.69
60852;BME280;48553;50.766;2.900;2023-07-13T10:03:34;101085.38;;;20.99;64.83
60852;BME280;48553;50.766;2.900;2023-07-13T10:06:40;101083.78;;;20.98;65.12
60852;BME280;48553;50.766;2.900;2023-07-13T10:09:42;101082.59;;;20.99;65.72
60852;BME280;48553;50.766;2.900;2023-07-13T10:12:44;101083.00;;;21.01;67.01
60852;BME280;48553;50.766;2.900;2023-07-13T10:15:44;101086.94;;;21.11;67.05
60852;BME280;48553;50.766;2.900;2023-07-13T10:18:50;101082.94;;;21.22;68.31
60852;BME280;48553;50.766;2.900;2023-07-13T10:21:54;101086.13;;;21.32;68.26
60852;BME280;48553;50.766;2.900;2023-07-13T10:24:55;101084.13;;;21.43;68.41
60852;BME280;48553;50.766;2.900;2023-07-13T10:28:03;101082.91;;;21.55;68.11
60852;BME280;48553;50.766;2.900;2023-07-13T10:31:11;101085.25;;;21.67;68.30
60852;BME280;48553;50.766;2.900;2023-07-13T10:34:13;101090.34;;;21.86;67.33
60852;BME280;48553;50.766;2.900;2023-07-13T10:37:23;101091.06;;;22.05;67.31
60852;BME280;48553;50.766;2.900;2023-07-13T10:40:33;101092.56;;;22.31;66.67
60852;BME280;48553;50.766;2.900;2023-07-13T10:43:37;101093.16;;;22.60;66.28
60852;BME280;48553;50.766;2.900;2023-07-13T10:46:41;101095.38;;;22.80;65.13
60852;BME280;48553;50.766;2.900;2023-07-13T10:49:44;101087.31;;;22.92;63.82
60852;BME280;48553;50.766;2.900;2023-07-13T10:59:09;101087.31;;;23.34;61.15
60852;BME280;48553;50.766;2.900;2023-07-13T11:05:31;101089.25;;;23.03;60.13
60852;BME280;48553;50.766;2.900;2023-07-13T11:11:47;101092.91;;;22.89;58.90
60852;BME280;48553;50.766;2.900;2023-07-13T11:17:55;101079.97;;;23.13;57.76
60852;BME280;48553;50.766;2.900;2023-07-13T11:21:15;101084.00;;;23.08;57.09
60852;BME280;48553;50.766;2.900;2023-07-13T11:24:17;101087.25;;;23.03;57.12
60852;BME280;48553;50.766;2.900;2023-07-13T11:27:39;101094.06;;;22.99;57.01
60852;BME280;48553;50.766;2.900;2023-07-13T11:30:46;101087.25;;;23.03;56.72
60852;BME280;48553;50.766;2.900;2023-07-13T11:33:53;101079.16;;;23.12;56.40
60852;BME280;48553;50.766;2.900;2023-07-13T11:36:57;101087.13;;;23.14;55.89
60852;BME280;48553;50.766;2.900;2023-07-13T11:39:58;101081.19;;;23.12;55.64
60852;BME280;48553;50.766;2.900;2023-07-13T11:43:00;101078.78;;;23.10;54.93
60852;BME280;48553;50.766;2.900;2023-07-13T11:46:24;101075.63;;;23.05;53.92
60852;BME280;48553;50.766;2.900;2023-07-13T11:49:26;101087.97;;;23.11;53.89
60852;BME280;48553;50.766;2.900;2023-07-13T11:52:36;101085.28;;;23.38;53.52
60852;BME280;48553;50.766;2.900;2023-07-13T11:55:37;101088.88;;;23.73;52.71
60852;BME280;48553;50.766;2.900;2023-07-13T11:58:38;101084.50;;;24.06;52.20
60852;BME280;48553;50.766;2.900;2023-07-13T12:01:44;101092.31;;;24.18;53.25
60852;BME280;48553;50.766;2.900;2023-07-13T12:04:46;101090.63;;;24.25;52.99
60852;BME280;48553;50.766;2.900;2023-07-13T12:07:49;101087.69;;;24.35;51.22
60852;BME280;48553;50.766;2.900;2023-07-13T12:11:00;101081.88;;;24.50;51.34
60852;BME280;48553;50.766;2.900;2023-07-13T12:14:01;101080.34;;;24.45;50.93
60852;BME280;48553;50.766;2.900;2023-07-13T12:17:12;101069.25;;;24.65;49.40
60852;BME280;48553;50.766;2.900;2023-07-13T12:20:26;101081.06;;;24.76;48.60
60852;BME280;48553;50.766;2.900;2023-07-13T12:23:32;101078.56;;;24.82;48.97
60852;BME280;48553;50.766;2.900;2023-07-13T12:26:33;101081.06;;;24.76;49.33
60852;BME280;48553;50.766;2.900;2023-07-13T12:29:34;101083.22;;;24.92;48.45
60852;BME280;48553;50.766;2.900;2023-07-13T12:32:34;101081.97;;;24.93;47.89
60852;BME280;48553;50.766;2.900;2023-07-13T12:35:41;101088.19;;;24.81;48.53
60852;BME280;48553;50.766;2.900;2023-07-13T12:38:45;101073.06;;;24.75;48.26
60852;BME280;48553;50.766;2.900;2023-07-13T12:41:48;101072.66;;;24.76;47.89
60852;BME280;48553;50.766;2.900;2023-07-13T12:44:49;101078.03;;;24.67;48.83
60852;BME280;48553;50.766;2.900;2023-07-13T12:48:02;101082.41;;;24.68;49.11
60852;BME280;48553;50.766;2.900;2023-07-13T12:51:08;101077.84;;;24.78;48.59
60852;BME280;48553;50.766;2.900;2023-07-13T12:54:15;101074.94;;;24.85;48.62
60852;BME280;48553;50.766;2.900;2023-07-13T12:57:17;101076.72;;;24.95;48.43
60852;BME280;48553;50.766;2.900;2023-07-13T13:00:30;101076.25;;;25.00;47.52
60852;BME280;48553;50.766;2.900;2023-07-13T13:06:33;101084.09;;;25.09;47.71
60852;BME280;48553;50.766;2.900;2023-07-13T13:09:36;101086.34;;;25.18;47.76
60852;BME280;48553;50.766;2.900;2023-07-13T13:12:36;101080.38;;;25.39;46.81
60852;BME280;48553;50.766;2.900;2023-07-13T13:15:37;101077.34;;;25.30;46.99
60852;BME280;48553;50.766;2.900;2023-07-13T13:18:37;101078.28;;;25.24;47.96
60852;BME280;48553;50.766;2.900;2023-07-13T13:21:38;101085.13;;;25.42;47.90
60852;BME280;48553;50.766;2.900;2023-07-13T13:24:38;101077.50;;;25.63;47.26
60852;BME280;48553;50.766;2.900;2023-07-13T13:27:41;101068.72;;;25.61;47.70
60852;BME280;48553;50.766;2.900;2023-07-13T13:30:43;101078.06;;;25.74;47.07
60852;BME280;48553;50.766;2.900;2023-07-13T13:33:45;101081.50;;;25.82;46.21
60852;BME280;48553;50.766;2.900;2023-07-13T13:36:47;101089.16;;;25.81;46.38
60852;BME280;48553;50.766;2.900;2023-07-13T13:39:48;101070.53;;;25.71;46.13
60852;BME280;48553;50.766;2.900;2023-07-13T13:42:49;101078.59;;;25.69;46.05
60852;BME280;48553;50.766;2.900;2023-07-13T13:45:53;101084.25;;;25.86;45.32
60852;BME280;48553;50.766;2.900;2023-07-13T13:48:54;101084.59;;;25.91;44.57
60852;BME280;48553;50.766;2.900;2023-07-13T13:51:55;101088.53;;;25.94;43.93
60852;BME280;48553;50.766;2.900;2023-07-13T13:54:55;101074.41;;;25.97;44.23
60852;BME280;48553;50.766;2.900;2023-07-13T13:57:56;101067.78;;;26.08;44.59
60852;BME280;48553;50.766;2.900;2023-07-13T14:00:56;101069.88;;;26.20;43.50
60852;BME280;48553;50.766;2.900;2023-07-13T14:03:58;101071.91;;;26.19;44.39
60852;BME280;48553;50.766;2.900;2023-07-13T14:06:59;101075.94;;;26.18;44.14
60852;BME280;48553;50.766;2.900;2023-07-13T14:10:00;101071.56;;;26.17;43.71
60852;BME280;48553;50.766;2.900;2023-07-13T14:13:00;101065.75;;;26.08;44.32
60852;BME280;48553;50.766;2.900;2023-07-13T14:16:01;101062.91;;;25.92;45.22
60852;BME280;48553;50.766;2.900;2023-07-13T14:19:01;101075.25;;;25.74;45.04
60852;BME280;48553;50.766;2.900;2023-07-13T14:22:02;101059.44;;;25.64;44.52
60852;BME280;48553;50.766;2.900;2023-07-13T14:25:03;101074.13;;;25.72;44.91
60852;BME280;48553;50.766;2.900;2023-07-13T14:31:21;101076.97;;;26.08;42.92
60852;BME280;48553;50.766;2.900;2023-07-13T14:34:22;101076.94;;;25.92;43.86
60852;BME280;48553;50.766;2.900;2023-07-13T14:37:23;101077.28;;;25.74;43.88
60852;BME280;48553;50.766;2.900;2023-07-13T14:40:28;101067.19;;;25.76;44.39
60852;BME280;48553;50.766;2.900;2023-07-13T14:43:29;101071.94;;;25.79;44.70
60852;BME280;48553;50.766;2.900;2023-07-13T14:46:32;101076.50;;;25.73;44.25
60852;BME280;48553;50.766;2.900;2023-07-13T14:49:42;101070.28;;;25.82;43.88
60852;BME280;48553;50.766;2.900;2023-07-13T14:52:44;101064.03;;;25.94;42.86
60852;BME280;48553;50.766;2.900;2023-07-13T14:55:45;101076.06;;;25.95;41.99
60852;BME280;48553;50.766;2.900;2023-07-13T14:58:45;101064.19;;;26.07;40.62
60852;BME280;48553;50.766;2.900;2023-07-13T15:01:46;101065.38;;;26.06;42.31
60852;BME280;48553;50.766;2.900;2023-07-13T15:04:47;101058.63;;;26.03;42.37
60852;BME280;48553;50.766;2.900;2023-07-13T15:07:48;101066.69;;;26.01;42.22
60852;BME280;48553;50.766;2.900;2023-07-13T15:10:49;101062.03;;;25.95;42.97
60852;BME280;48553;50.766;2.900;2023-07-13T15:13:50;101062.13;;;25.91;42.36
60852;BME280;48553;50.766;2.900;2023-07-13T15:16:53;101061.75;;;25.89;42.03
60852;BME280;48553;50.766;2.900;2023-07-13T15:19:54;101061.00;;;25.85;41.62
60852;BME280;48553;50.766;2.900;2023-07-13T15:22:56;101067.47;;;25.82;42.23
60852;BME280;48553;50.766;2.900;2023-07-13T15:25:57;101060.16;;;25.88;42.09
60852;BME280;48553;50.766;2.900;2023-07-13T15:28:57;101064.25;;;25.83;41.72
60852;BME280;48553;50.766;2.900;2023-07-13T15:31:58;101066.91;;;25.91;42.15
60852;BME280;48553;50.766;2.900;2023-07-13T15:34:58;101071.47;;;25.84;42.77
60852;BME280;48553;50.766;2.900;2023-07-13T15:37:58;101067.84;;;25.84;43.41
60852;BME280;48553;50.766;2.900;2023-07-13T15:40:59;101063.53;;;25.79;42.71
60852;BME280;48553;50.766;2.900;2023-07-13T15:44:01;101072.25;;;25.65;43.45
60852;BME280;48553;50.766;2.900;2023-07-13T15:47:05;101062.09;;;25.51;43.61
60852;BME280;48553;50.766;2.900;2023-07-13T15:50:12;101053.38;;;25.46;42.83
60852;BME280;48553;50.766;2.900;2023-07-13T15:53:12;101070.44;;;25.55;43.23
60852;BME280;48553;50.766;2.900;2023-07-13T15:56:21;101063.47;;;25.63;43.34
60852;BME280;48553;50.766;2.900;2023-07-13T15:59:22;101059.56;;;25.57;42.91
60852;BME280;48553;50.766;2.900;2023-07-13T16:02:23;101056.56;;;25.48;43.05
60852;BME280;48553;50.766;2.900;2023-07-13T16:05:24;101062.31;;;25.40;43.72
60852;BME280;48553;50.766;2.900;2023-07-13T16:08:27;101059.88;;;25.42;43.72
60852;BME280;48553;50.766;2.900;2023-07-13T16:11:36;101056.13;;;25.49;43.76
60852;BME280;48553;50.766;2.900;2023-07-13T16:14:37;101060.50;;;25.50;44.40
60852;BME280;48553;50.766;2.900;2023-07-13T16:17:39;101059.09;;;25.62;43.58
60852;BME280;48553;50.766;2.900;2023-07-13T16:20:41;101055.19;;;25.56;44.00
60852;BME280;48553;50.766;2.900;2023-07-13T16:23:43;101049.94;;;25.58;43.78
60852;BME280;48553;50.766;2.900;2023-07-13T16:26:45;101058.00;;;25.56;43.64